General Aviation Weather

Text Reports

Enter one or more of the following location identifiers separated by a space:

Zip Code, Four-Character ICAO or Three-Character IATA airport codes.

METAR - Aviation Routine Weather Report
KFSM - Fort Smith, Arkansas
Updated at 2:53 PM GMT on February 01, 2015 (8:53 AM CST):
METAR KFSM 011453Z 00000KT 3SM BR OVC005 06/05 A2983
TAF - Terminal Area Forecast
KFSM - Fort Smith, Arkansas
Updated at 2:53 PM GMT on February 01, 2015 (8:53 AM CST):
No TAF is currently available for this location.
Decoded:
No decoded TAF is available.
PIREP - Pilot Weather Report
KFSM - Fort Smith, Arkansas
Updated at 2:53 PM GMT on February 01, 2015 (8:53 AM CST):
No PIREP is currently available for this location.
AIRMET - Airmens Meteorological Information
KFSM - Fort Smith, Arkansas
Updated at 2:53 PM GMT on February 01, 2015 (8:53 AM CST):
No AIRMET is currently available for this location.
SIGMET - Significant Meteorological Information
KFSM - Fort Smith, Arkansas
Updated at 2:53 PM GMT on February 01, 2015 (8:53 AM CST):
No SIGMET is currently available for this location.
NOTAM - Notice to Airmen
KFSM - Fort Smith, Arkansas
Updated at 2:53 PM GMT on February 01, 2015 (8:53 AM CST):
No NOTAM is currently available for this location.
Forecast Area
KFSM - Fort Smith, Arkansas
Updated at 2:53 PM GMT on February 01, 2015 (8:53 AM CST):
No NOTAM is currently available for this location.
Aviation Weather Maps